createdAt,value
2023-05-19T00:02:26.184Z,3.78
2023-05-19T00:04:55.177Z,5.18
2023-05-19T00:07:28.944Z,4.75
2023-05-19T00:09:58.071Z,4.30
2023-05-19T00:12:28.632Z,6.07
2023-05-19T00:14:57.548Z,5.70
2023-05-19T00:17:26.459Z,4.95
2023-05-19T00:19:54.932Z,4.18
2023-05-19T00:22:23.546Z,3.85
2023-05-19T00:24:51.931Z,4.95
2023-05-19T00:27:20.291Z,3.97
2023-05-19T00:29:50.158Z,4.78
2023-05-19T00:32:18.873Z,4.63
2023-05-19T00:34:48.561Z,5.00
2023-05-19T00:37:18.718Z,5.55
2023-05-19T00:39:47.176Z,3.60
2023-05-19T00:42:15.900Z,4.15
2023-05-19T00:44:44.399Z,8.10
2023-05-19T00:47:14.228Z,5.32
2023-05-19T00:49:42.579Z,5.13
2023-05-19T00:52:10.991Z,7.95
2023-05-19T00:54:40.892Z,6.97
2023-05-19T00:57:09.480Z,4.65
2023-05-19T00:59:37.984Z,6.38
2023-05-19T01:02:07.049Z,7.05
2023-05-19T01:04:39.578Z,6.75
2023-05-19T01:07:08.439Z,6.32
2023-05-19T01:09:37.430Z,4.55
2023-05-19T01:12:06.221Z,4.50
2023-05-19T01:14:34.679Z,5.82
2023-05-19T01:17:10.059Z,5.70
2023-05-19T01:19:57.602Z,5.85
2023-05-19T01:22:43.070Z,4.60
2023-05-19T01:25:44.335Z,5.75
2023-05-19T01:28:41.751Z,9.45
2023-05-19T01:31:13.341Z,4.88
2023-05-19T01:33:45.052Z,5.20
2023-05-19T01:36:14.760Z,6.18
2023-05-19T01:38:44.672Z,5.43
2023-05-19T01:41:14.010Z,5.53
2023-05-19T01:43:42.717Z,8.10
2023-05-19T01:46:13.365Z,8.38
2023-05-19T01:48:42.813Z,6.00
2023-05-19T01:51:11.174Z,4.63
2023-05-19T01:53:40.044Z,6.65
2023-05-19T01:56:09.166Z,4.57
2023-05-19T01:58:45.226Z,7.00
2023-05-19T02:01:28.948Z,6.78
2023-05-19T02:04:18.711Z,3.28
2023-05-19T02:06:52.925Z,5.40
2023-05-19T02:09:28.133Z,4.65
2023-05-19T02:12:02.668Z,6.78
2023-05-19T02:14:36.545Z,5.47
2023-05-19T02:19:39.144Z,4.28
2023-05-19T02:22:07.911Z,4.80
2023-05-19T02:24:36.818Z,6.28
2023-05-19T02:27:06.457Z,4.03
2023-05-19T02:29:35.684Z,5.65
2023-05-19T02:32:04.086Z,4.40
2023-05-19T02:34:33.951Z,4.47
2023-05-19T02:37:02.379Z,4.57
2023-05-19T02:39:35.232Z,4.57
2023-05-19T02:42:04.220Z,5.35
2023-05-19T02:44:32.570Z,4.07
2023-05-19T02:47:01.095Z,5.60
2023-05-19T02:49:30.983Z,5.70
2023-05-19T02:52:00.738Z,5.45
2023-05-19T02:54:29.080Z,5.63
2023-05-19T02:56:57.520Z,4.20
2023-05-19T02:59:26.137Z,13.15
2023-05-19T03:01:57.378Z,6.05
2023-05-19T03:04:25.933Z,4.90
2023-05-19T03:06:54.289Z,4.45
2023-05-19T03:09:24.078Z,3.85
2023-05-19T03:11:52.800Z,3.72
2023-05-19T03:14:24.291Z,3.35
2023-05-19T03:16:53.150Z,3.28
2023-05-19T03:19:21.732Z,2.88
2023-05-19T03:21:50.345Z,4.53
2023-05-19T03:24:18.848Z,3.55
2023-05-19T03:26:48.978Z,7.97
2023-05-19T03:29:17.396Z,4.30
2023-05-19T03:31:46.824Z,5.55
2023-05-19T03:34:17.775Z,4.28
2023-05-19T03:36:46.187Z,6.45
2023-05-19T03:39:17.356Z,6.55
2023-05-19T03:41:48.784Z,5.95
2023-05-19T03:44:17.361Z,4.95
2023-05-19T03:46:46.318Z,5.13
2023-05-19T03:49:33.067Z,4.75
2023-05-19T03:52:36.674Z,5.47
2023-05-19T03:55:12.895Z,3.95
2023-05-19T03:57:43.439Z,4.22
2023-05-19T04:00:13.537Z,5.20
2023-05-19T04:02:42.184Z,5.50
2023-05-19T04:05:11.664Z,4.30
2023-05-19T04:07:40.127Z,5.45
2023-05-19T04:10:09.598Z,5.70
2023-05-19T04:12:38.020Z,6.05
2023-05-19T04:15:11.539Z,4.93
2023-05-19T04:20:09.165Z,5.03
2023-05-19T04:22:37.659Z,5.70
2023-05-19T04:25:07.735Z,5.85
2023-05-19T04:27:38.992Z,5.15
2023-05-19T04:30:10.584Z,8.35
2023-05-19T04:32:39.836Z,6.57
2023-05-19T04:35:08.836Z,4.95
2023-05-19T04:37:38.481Z,7.22
2023-05-19T04:40:31.506Z,3.60
2023-05-19T04:43:02.364Z,4.22
2023-05-19T04:45:34.150Z,3.88
2023-05-19T04:48:04.320Z,3.40
2023-05-19T04:50:33.045Z,4.53
2023-05-19T04:53:02.240Z,3.55
2023-05-19T04:55:31.247Z,4.00
2023-05-19T04:57:59.765Z,3.75
2023-05-19T05:00:29.800Z,6.10
2023-05-19T05:03:07.239Z,8.82
2023-05-19T05:05:36.281Z,5.85
2023-05-19T05:08:04.939Z,3.75
2023-05-19T05:10:38.997Z,5.18
2023-05-19T05:13:08.690Z,3.63
2023-05-19T05:15:38.742Z,7.25
2023-05-19T05:18:09.486Z,5.68
2023-05-19T05:20:38.781Z,4.72
2023-05-19T05:23:09.751Z,3.60
2023-05-19T05:25:40.148Z,5.88
2023-05-19T05:28:08.652Z,4.13
2023-05-19T05:30:39.113Z,2.72
2023-05-19T05:33:10.667Z,4.70
2023-05-19T05:35:41.204Z,2.67
2023-05-19T05:38:12.629Z,5.82
2023-05-19T05:40:41.914Z,4.00
2023-05-19T05:43:10.985Z,3.75
2023-05-19T05:45:46.280Z,5.70
2023-05-19T05:48:17.637Z,7.78
2023-05-19T05:50:47.129Z,5.15
2023-05-19T05:53:21.502Z,7.40
2023-05-19T05:55:54.937Z,3.78
2023-05-19T05:58:28.715Z,4.78
2023-05-19T06:00:59.870Z,4.65
2023-05-19T06:03:29.773Z,3.92
2023-05-19T06:06:03.102Z,3.50
2023-05-19T06:08:31.763Z,3.97
2023-05-19T06:11:00.323Z,5.78
2023-05-19T06:13:30.974Z,7.93
2023-05-19T06:16:02.006Z,4.63
2023-05-19T06:18:41.110Z,3.72
2023-05-19T06:21:10.522Z,4.70
2023-05-19T06:23:39.366Z,4.28
2023-05-19T06:26:09.323Z,6.80
2023-05-19T06:28:37.789Z,3.83
2023-05-19T06:31:06.950Z,5.00
2023-05-19T06:33:48.107Z,4.50
2023-05-19T06:36:17.754Z,6.03
2023-05-19T06:38:47.133Z,3.67
2023-05-19T06:41:15.562Z,4.22
2023-05-19T06:43:44.162Z,6.68
2023-05-19T06:46:17.941Z,2.45
2023-05-19T06:48:48.112Z,4.18
2023-05-19T06:51:21.864Z,5.70
2023-05-19T06:53:55.702Z,5.65
2023-05-19T06:56:25.144Z,5.80
2023-05-19T06:58:53.485Z,9.20
2023-05-19T07:01:28.235Z,4.33
2023-05-19T07:04:01.961Z,3.88
2023-05-19T07:06:31.513Z,4.22
2023-05-19T07:09:00.128Z,7.72
2023-05-19T07:11:29.862Z,8.25
2023-05-19T07:13:58.317Z,6.60
2023-05-19T07:16:29.927Z,4.70
2023-05-19T07:18:58.486Z,4.32
2023-05-19T07:21:28.482Z,5.43
2023-05-19T07:23:57.131Z,7.72
2023-05-19T07:26:26.532Z,5.70
2023-05-19T07:28:55.051Z,8.65
2023-05-19T07:31:23.592Z,6.30
2023-05-19T07:33:54.526Z,6.15
2023-05-19T07:36:23.330Z,6.43
2023-05-19T07:38:53.225Z,6.80
2023-05-19T07:41:21.731Z,4.72
2023-05-19T07:43:50.224Z,7.25
2023-05-19T07:46:18.824Z,7.18
2023-05-19T07:48:47.414Z,5.57
2023-05-19T07:51:16.325Z,4.18
2023-05-19T07:53:44.684Z,6.32
2023-05-19T07:56:14.740Z,6.97
2023-05-19T07:58:43.134Z,5.90
2023-05-19T08:01:11.610Z,7.80
2023-05-19T08:03:40.133Z,5.75
2023-05-19T08:06:08.601Z,5.07
2023-05-19T08:08:37.041Z,5.82
2023-05-19T08:11:06.719Z,8.70
2023-05-19T08:13:37.028Z,10.98
2023-05-19T08:16:05.545Z,10.98
2023-05-19T08:18:34.060Z,8.20
2023-05-19T08:21:02.759Z,7.78
2023-05-19T08:23:31.136Z,9.65
2023-05-19T08:25:59.564Z,10.75
2023-05-19T08:28:27.954Z,9.48
2023-05-19T08:30:57.879Z,9.52
2023-05-19T08:33:26.317Z,9.55
2023-05-19T08:35:55.772Z,10.07
2023-05-19T08:38:24.205Z,11.63
2023-05-19T08:40:52.703Z,11.88
2023-05-19T08:43:21.084Z,7.97
2023-05-19T08:45:50.178Z,9.20
2023-05-19T08:48:20.742Z,11.93
2023-05-19T08:50:58.478Z,15.48
2023-05-19T08:53:34.557Z,11.63
2023-05-19T08:56:11.139Z,11.35
2023-05-19T08:58:41.473Z,7.10
2023-05-19T09:01:10.991Z,10.38
2023-05-19T09:03:42.976Z,8.55
2023-05-19T09:06:13.778Z,10.82
2023-05-19T09:08:42.963Z,8.27
2023-05-19T09:11:11.893Z,8.63
2023-05-19T09:13:40.570Z,9.63
2023-05-19T09:16:09.565Z,10.05
2023-05-19T09:18:41.898Z,9.18
2023-05-19T09:21:12.077Z,8.45
2023-05-19T09:23:40.519Z,7.57
2023-05-19T09:26:09.034Z,7.15
2023-05-19T09:28:38.502Z,7.47
2023-05-19T09:31:07.889Z,9.27
2023-05-19T09:33:37.548Z,6.10
2023-05-19T09:36:08.631Z,8.55
2023-05-19T09:38:37.530Z,6.65
2023-05-19T09:41:07.843Z,6.00
2023-05-19T09:43:36.918Z,6.20
2023-05-19T09:46:06.395Z,6.07
2023-05-19T09:48:36.649Z,9.88
2023-05-19T09:51:10.478Z,7.97
2023-05-19T09:53:39.282Z,8.43
2023-05-19T09:56:10.110Z,7.28
2023-05-19T09:58:39.232Z,8.52
2023-05-19T10:01:08.368Z,5.80
2023-05-19T10:03:37.973Z,8.90
2023-05-19T10:06:09.681Z,5.97
2023-05-19T10:08:39.069Z,6.88
2023-05-19T10:11:08.252Z,10.35
2023-05-19T10:13:38.774Z,7.70
2023-05-19T10:16:07.997Z,10.15
2023-05-19T10:18:39.576Z,6.40
2023-05-19T10:21:10.740Z,7.15
2023-05-19T10:23:39.910Z,8.65
2023-05-19T10:26:09.440Z,10.95
2023-05-19T10:28:40.894Z,10.68
2023-05-19T10:31:13.432Z,7.70
2023-05-19T10:34:02.526Z,7.40
2023-05-19T10:36:45.884Z,8.10
2023-05-19T10:39:21.066Z,6.75
2023-05-19T10:42:02.685Z,5.57
2023-05-19T10:44:47.874Z,9.35
2023-05-19T10:47:21.708Z,6.47
2023-05-19T10:49:50.351Z,8.35
2023-05-19T10:52:26.214Z,12.60
2023-05-19T10:54:55.320Z,6.20
2023-05-19T10:57:28.618Z,7.47
2023-05-19T10:59:57.534Z,7.63
2023-05-19T11:02:41.713Z,6.70
2023-05-19T11:05:11.144Z,6.28
2023-05-19T11:07:42.867Z,4.63
2023-05-19T11:10:12.150Z,6.35
2023-05-19T11:12:44.932Z,7.65
2023-05-19T11:15:15.257Z,8.43
2023-05-19T11:17:46.565Z,7.35
2023-05-19T11:20:23.696Z,5.22
2023-05-19T11:23:09.927Z,7.47
2023-05-19T11:25:47.063Z,7.13
2023-05-19T11:28:19.689Z,7.22
2023-05-19T11:30:52.167Z,5.40
2023-05-19T11:33:21.860Z,4.82
2023-05-19T11:35:52.454Z,11.32
2023-05-19T11:38:23.891Z,10.68
2023-05-19T11:40:54.973Z,7.20
2023-05-19T11:43:25.060Z,5.05
2023-05-19T11:45:55.117Z,8.48
2023-05-19T11:48:24.253Z,9.73
2023-05-19T11:50:52.943Z,7.22
2023-05-19T11:53:22.925Z,7.57
2023-05-19T11:55:52.059Z,6.00
2023-05-19T11:58:27.456Z,8.02
2023-05-19T12:00:56.400Z,7.97
2023-05-19T12:03:26.642Z,8.18
2023-05-19T12:05:56.148Z,6.32
2023-05-19T12:08:27.306Z,10.02
2023-05-19T12:10:56.441Z,6.40
2023-05-19T12:13:24.910Z,6.20
2023-05-19T12:15:53.962Z,10.77
2023-05-19T12:18:22.457Z,8.60
2023-05-19T12:20:51.418Z,6.57
2023-05-19T12:23:20.332Z,6.47
2023-05-19T12:25:50.679Z,6.50
2023-05-19T12:28:21.041Z,4.20
2023-05-19T12:30:52.354Z,6.78
2023-05-19T12:33:20.993Z,8.07
2023-05-19T12:35:50.237Z,10.55
2023-05-19T12:38:20.633Z,8.40
2023-05-19T12:40:51.547Z,8.15
2023-05-19T12:43:24.189Z,6.97
2023-05-19T12:45:53.518Z,9.82
2023-05-19T12:48:23.921Z,10.77
2023-05-19T12:50:54.053Z,6.20
2023-05-19T12:53:22.637Z,6.70
2023-05-19T12:55:54.232Z,5.45
2023-05-19T12:58:23.428Z,8.68
2023-05-19T13:00:52.893Z,8.40
2023-05-19T13:03:22.302Z,6.95
2023-05-19T13:05:52.200Z,5.68
2023-05-19T13:08:24.165Z,9.50
2023-05-19T13:10:54.713Z,7.60
2023-05-19T13:13:23.340Z,5.90
2023-05-19T13:15:51.773Z,8.70
2023-05-19T13:18:20.600Z,5.78
2023-05-19T13:20:50.332Z,7.60
2023-05-19T13:23:18.868Z,13.00
2023-05-19T13:25:47.424Z,5.22
2023-05-19T13:28:17.343Z,4.97
2023-05-19T13:30:46.879Z,7.10
2023-05-19T13:33:15.455Z,4.55
2023-05-19T13:35:44.032Z,3.55
2023-05-19T13:38:12.474Z,3.83
2023-05-19T13:40:41.085Z,6.72
2023-05-19T13:43:09.950Z,7.60
2023-05-19T13:45:41.323Z,2.92
2023-05-19T13:48:11.069Z,3.35
2023-05-19T13:50:39.686Z,4.45
2023-05-19T13:53:08.406Z,4.15
2023-05-19T13:55:36.997Z,3.63
2023-05-19T13:58:05.383Z,3.55
2023-05-19T14:00:36.323Z,6.50
2023-05-19T14:03:07.060Z,7.68
2023-05-19T14:05:35.817Z,9.63
2023-05-19T14:08:05.667Z,8.13
2023-05-19T14:10:34.272Z,9.18
2023-05-19T14:15:38.082Z,6.38
2023-05-19T14:18:08.594Z,8.80
2023-05-19T14:20:37.071Z,12.88
2023-05-19T14:23:05.709Z,6.53
2023-05-19T14:25:34.200Z,9.18
2023-05-19T14:28:02.966Z,9.48
2023-05-19T14:30:31.810Z,7.22
2023-05-19T14:33:00.594Z,11.00
2023-05-19T14:35:31.158Z,9.35
2023-05-19T14:37:59.622Z,8.63
2023-05-19T14:40:28.147Z,16.90
2023-05-19T14:42:56.569Z,9.25
2023-05-19T14:45:25.050Z,6.68
2023-05-19T14:47:53.590Z,9.75
2023-05-19T14:50:22.111Z,8.77
2023-05-19T14:52:52.309Z,11.93
2023-05-19T14:55:20.728Z,9.25
2023-05-19T14:57:49.070Z,9.50
2023-05-19T15:00:18.162Z,9.52
2023-05-19T15:02:46.996Z,10.15
2023-05-19T15:05:15.430Z,13.02
2023-05-19T15:07:43.833Z,9.10
2023-05-19T15:10:13.829Z,8.68
2023-05-19T15:12:42.222Z,9.25
2023-05-19T15:15:11.534Z,11.52
2023-05-19T15:17:41.113Z,9.00
2023-05-19T15:20:10.291Z,6.38
2023-05-19T15:22:38.690Z,7.72
2023-05-19T15:25:08.111Z,10.45
2023-05-19T15:27:37.974Z,10.25
2023-05-19T15:30:07.732Z,8.88
2023-05-19T15:32:36.094Z,7.57
2023-05-19T15:35:04.607Z,7.85
2023-05-19T15:37:33.641Z,7.40
2023-05-19T15:40:02.186Z,9.63
2023-05-19T15:42:30.548Z,6.47
2023-05-19T15:45:00.462Z,11.45
2023-05-19T15:47:28.999Z,11.10
2023-05-19T15:49:57.443Z,8.82
2023-05-19T15:52:27.019Z,12.40
2023-05-19T15:54:59.105Z,9.55
2023-05-19T15:57:27.565Z,10.48
2023-05-19T15:59:55.949Z,9.93
2023-05-19T16:02:26.089Z,8.57
2023-05-19T16:04:54.788Z,10.23
2023-05-19T16:07:23.936Z,12.05
2023-05-19T16:09:52.531Z,12.00
2023-05-19T16:12:21.039Z,9.82
2023-05-19T16:14:49.508Z,8.82
2023-05-19T16:17:18.203Z,7.65
2023-05-19T16:19:48.614Z,10.43
2023-05-19T16:22:18.179Z,9.70
2023-05-19T16:24:46.749Z,9.88
2023-05-19T16:27:15.157Z,10.90
2023-05-19T16:29:43.486Z,11.55
2023-05-19T16:32:12.078Z,9.88
2023-05-19T16:34:41.081Z,8.73
2023-05-19T16:37:11.086Z,12.60
2023-05-19T16:39:40.345Z,12.13
2023-05-19T16:42:08.865Z,10.10
2023-05-19T16:44:37.269Z,8.68
2023-05-19T16:47:06.326Z,8.35
2023-05-19T16:49:35.272Z,10.90
2023-05-19T16:52:03.751Z,7.85
2023-05-19T16:54:33.935Z,8.98
2023-05-19T16:57:02.612Z,10.27
2023-05-19T16:59:30.993Z,11.57
2023-05-19T17:01:59.593Z,8.13
2023-05-19T17:04:30.554Z,9.80
2023-05-19T17:06:59.437Z,8.70
2023-05-19T17:09:28.342Z,8.40
2023-05-19T17:11:58.216Z,10.82
2023-05-19T17:14:26.710Z,9.68
2023-05-19T17:16:55.121Z,10.23
2023-05-19T17:19:23.601Z,9.25
2023-05-19T17:21:52.159Z,13.68
2023-05-19T17:24:20.640Z,7.82
2023-05-19T17:26:49.110Z,10.95
2023-05-19T17:29:19.020Z,12.55
2023-05-19T17:31:47.861Z,10.88
2023-05-19T17:34:16.315Z,10.50
2023-05-19T17:36:44.746Z,8.80
2023-05-19T17:39:13.072Z,8.88
2023-05-19T17:41:41.567Z,9.70
2023-05-19T17:44:11.313Z,8.68
2023-05-19T17:46:41.537Z,7.43
2023-05-19T17:49:10.775Z,10.40
2023-05-19T17:51:39.981Z,9.35
2023-05-19T17:54:09.278Z,8.23
2023-05-19T17:56:43.291Z,10.57
2023-05-19T17:59:12.745Z,12.27
2023-05-19T18:01:42.999Z,8.50
2023-05-19T18:04:13.936Z,9.38
2023-05-19T18:06:45.884Z,8.15
2023-05-19T18:09:16.524Z,9.88
2023-05-19T18:11:44.969Z,8.75
2023-05-19T18:14:13.372Z,11.25
2023-05-19T18:16:43.494Z,7.60
2023-05-19T18:19:12.631Z,9.38
2023-05-19T18:21:41.115Z,10.40
2023-05-19T18:24:09.637Z,7.55
2023-05-19T18:26:42.109Z,9.18
2023-05-19T18:29:11.250Z,11.27
2023-05-19T18:31:39.960Z,8.05
2023-05-19T18:34:09.822Z,8.40
2023-05-19T18:36:38.690Z,8.70
2023-05-19T18:39:07.270Z,10.38
2023-05-19T18:41:41.221Z,9.32
2023-05-19T18:44:09.738Z,9.17
2023-05-19T18:46:38.140Z,7.07
2023-05-19T18:49:06.684Z,6.20
2023-05-19T18:51:36.537Z,8.82
2023-05-19T18:54:04.988Z,8.48
2023-05-19T18:56:34.599Z,7.68
2023-05-19T18:59:03.397Z,11.73
2023-05-19T19:01:32.334Z,8.05
2023-05-19T19:04:02.107Z,9.30
2023-05-19T19:06:31.329Z,11.30
2023-05-19T19:09:02.248Z,10.77
2023-05-19T19:11:30.901Z,8.23
2023-05-19T19:13:59.317Z,9.65
2023-05-19T19:16:28.856Z,8.02
2023-05-19T19:18:57.399Z,8.90
2023-05-19T19:21:25.961Z,8.10
2023-05-19T19:23:55.636Z,9.27
2023-05-19T19:26:26.940Z,9.52
2023-05-19T19:28:55.642Z,14.40
2023-05-19T19:31:25.927Z,11.30
2023-05-19T19:33:59.175Z,10.25
2023-05-19T19:36:28.101Z,7.68
2023-05-19T19:38:56.605Z,11.25
2023-05-19T19:41:26.755Z,8.50
2023-05-19T19:43:56.288Z,10.65
2023-05-19T19:46:24.751Z,10.30
2023-05-19T19:48:53.260Z,9.20
2023-05-19T19:51:21.780Z,10.07
2023-05-19T19:53:50.204Z,11.05
2023-05-19T19:56:18.650Z,8.63
2023-05-19T19:58:48.860Z,9.18
2023-05-19T20:01:17.396Z,8.70
2023-05-19T20:03:45.949Z,7.13
2023-05-19T20:06:14.837Z,7.47
2023-05-19T20:08:43.279Z,10.00
2023-05-19T20:11:11.810Z,9.30
2023-05-19T20:13:40.289Z,8.43
2023-05-19T20:16:10.378Z,8.35
2023-05-19T20:18:38.889Z,11.40
2023-05-19T20:21:07.253Z,8.93
2023-05-19T20:23:35.809Z,9.80
2023-05-19T20:28:38.869Z,8.05
2023-05-19T20:31:07.584Z,6.88
2023-05-19T20:33:37.857Z,8.32
2023-05-19T20:36:07.610Z,6.80
2023-05-19T20:38:36.053Z,9.55
2023-05-19T20:41:04.905Z,9.13
2023-05-19T20:43:33.813Z,7.85
2023-05-19T20:46:03.873Z,7.80
2023-05-19T20:48:32.610Z,7.70
2023-05-19T20:51:02.578Z,8.07
2023-05-19T20:53:31.021Z,7.63
2023-05-19T20:55:59.675Z,7.20
2023-05-19T20:58:30.381Z,7.97
2023-05-19T21:00:58.953Z,8.52
2023-05-19T21:03:28.736Z,6.50
2023-05-19T21:05:57.563Z,7.22
2023-05-19T21:08:27.713Z,8.05
2023-05-19T21:10:56.250Z,7.38
2023-05-19T21:13:24.634Z,10.10
2023-05-19T21:15:52.995Z,10.55
2023-05-19T21:18:21.496Z,6.95
2023-05-19T21:20:49.881Z,9.60
2023-05-19T21:23:18.434Z,7.70
2023-05-19T21:25:48.442Z,8.35
2023-05-19T21:28:16.871Z,11.10
2023-05-19T21:30:49.568Z,9.50
2023-05-19T21:33:18.416Z,9.07
2023-05-19T21:35:47.090Z,9.32
2023-05-19T21:38:24.043Z,6.03
2023-05-19T21:40:54.424Z,6.88
2023-05-19T21:43:23.360Z,6.50
2023-05-19T21:45:51.974Z,5.47
2023-05-19T21:48:21.676Z,7.55
2023-05-19T21:50:54.586Z,6.53
2023-05-19T21:53:23.200Z,8.38
2023-05-19T21:55:51.688Z,7.25
2023-05-19T21:58:21.672Z,5.68
2023-05-19T22:00:51.069Z,5.93
2023-05-19T22:03:20.020Z,6.07
2023-05-19T22:05:50.613Z,8.88
2023-05-19T22:08:19.836Z,6.75
2023-05-19T22:10:51.198Z,6.70
2023-05-19T22:13:19.908Z,7.05
2023-05-19T22:15:50.089Z,5.65
2023-05-19T22:18:18.557Z,6.07
2023-05-19T22:20:46.926Z,8.52
2023-05-19T22:23:15.481Z,5.82
2023-05-19T22:25:43.853Z,7.18
2023-05-19T22:28:12.441Z,4.68
2023-05-19T22:30:42.318Z,4.53
2023-05-19T22:33:13.130Z,6.10
2023-05-19T22:35:41.629Z,4.28
2023-05-19T22:38:10.730Z,4.43
2023-05-19T22:40:40.263Z,4.13
2023-05-19T22:43:08.697Z,6.13
2023-05-19T22:45:37.482Z,4.60
2023-05-19T22:48:06.920Z,4.05
2023-05-19T22:50:36.766Z,3.08
2023-05-19T22:53:05.131Z,5.18
2023-05-19T22:55:33.775Z,4.53
2023-05-19T22:58:02.329Z,3.70
2023-05-19T23:00:31.166Z,3.60
2023-05-19T23:02:59.808Z,3.88
2023-05-19T23:05:28.313Z,4.60
2023-05-19T23:07:58.325Z,7.80
2023-05-19T23:10:26.775Z,7.03
2023-05-19T23:12:55.238Z,3.17
2023-05-19T23:15:23.823Z,4.70
2023-05-19T23:17:52.267Z,9.32
2023-05-19T23:20:20.845Z,5.88
2023-05-19T23:22:49.181Z,7.10
2023-05-19T23:25:19.184Z,11.98
2023-05-19T23:27:47.784Z,5.50
2023-05-19T23:30:16.099Z,4.35
2023-05-19T23:32:45.566Z,4.68
2023-05-19T23:35:15.231Z,4.25
2023-05-19T23:37:43.988Z,3.75
2023-05-19T23:40:13.102Z,6.38
2023-05-19T23:42:44.902Z,5.93
2023-05-19T23:45:13.413Z,4.78
2023-05-19T23:47:41.851Z,5.65
2023-05-19T23:50:11.522Z,4.45
2023-05-19T23:52:39.857Z,6.00
2023-05-19T23:55:10.019Z,3.80
2023-05-19T23:57:38.511Z,2.78
